Time;durP1;ratioP1;P1;durP2;ratioP2;P2;SDS_P1;SDS_P2;PMS_P1;PMS_P2;Temp;Humidity;BMP_temperature;BMP_pressure;BME280_temperature;BME280_humidity;BME280_pressure;Samples;Min_cycle;Max_cycle;Signal;HPM_P1;HPM_P2
2022/07/19 00:00:32;;;;;;;7.03;3.20;;;19.90;99.00;;;;;;5054435;28;20045;-71
2022/07/19 00:02:58;;;;;;;6.05;3.30;;;19.80;99.20;;;;;;5054654;28;20045;-71
2022/07/19 00:05:24;;;;;;;8.60;3.72;;;19.80;99.20;;;;;;5055516;28;20365;-71
2022/07/19 00:07:49;;;;;;;7.75;3.75;;;19.80;99.20;;;;;;5058493;28;20045;-71
2022/07/19 00:10:17;;;;;;;5.63;2.28;;;19.80;99.00;;;;;;5058628;28;20048;-70
2022/07/19 00:12:43;;;;;;;8.35;3.53;;;19.80;98.80;;;;;;5058719;28;20055;-70
2022/07/19 00:15:10;;;;;;;7.05;3.30;;;19.80;99.10;;;;;;5058421;28;20049;-71
2022/07/19 00:17:43;;;;;;;7.88;3.80;;;19.80;99.20;;;;;;5058653;28;20401;-71
2022/07/19 00:20:11;;;;;;;6.18;3.20;;;19.70;99.60;;;;;;5058379;28;20123;-71
2022/07/19 00:22:37;;;;;;;7.70;2.95;;;19.70;99.40;;;;;;5041945;28;20342;-70
2022/07/19 00:25:03;;;;;;;9.45;3.70;;;19.70;99.60;;;;;;5058461;28;20041;-71
2022/07/19 00:27:29;;;;;;;6.47;3.08;;;19.70;99.20;;;;;;5058248;28;20049;-71
2022/07/19 00:29:54;;;;;;;12.23;3.72;;;19.60;99.00;;;;;;5058499;28;20380;-71
2022/07/19 00:32:20;;;;;;;6.25;3.33;;;19.60;99.20;;;;;;5040800;28;20377;-70
2022/07/19 00:34:45;;;;;;;5.65;2.42;;;19.50;99.60;;;;;;5058166;28;20400;-71
2022/07/19 00:37:11;;;;;;;6.95;3.22;;;19.40;99.50;;;;;;5058273;28;20053;-71
2022/07/19 00:39:37;;;;;;;6.28;3.70;;;19.40;99.90;;;;;;5058318;28;20056;-71
2022/07/19 00:42:02;;;;;;;5.72;2.95;;;19.30;99.90;;;;;;5058105;28;20037;-71
2022/07/19 00:44:28;;;;;;;6.03;3.17;;;19.30;99.90;;;;;;5058031;28;20044;-71
2022/07/19 00:46:54;;;;;;;5.45;3.22;;;19.30;99.80;;;;;;5057824;28;20090;-70
2022/07/19 00:49:20;;;;;;;10.98;2.95;;;19.20;99.90;;;;;;5057652;28;20127;-71
2022/07/19 00:51:47;;;;;;;7.72;3.65;;;19.20;99.90;;;;;;5057755;28;20049;-72
2022/07/19 00:54:13;;;;;;;7.35;3.40;;;19.20;99.90;;;;;;5057800;28;20056;-71
2022/07/19 00:56:40;;;;;;;5.18;2.97;;;19.10;99.90;;;;;;5058319;28;20102;-71
2022/07/19 00:59:07;;;;;;;8.55;3.40;;;19.00;99.90;;;;;;5058343;28;20374;-71
2022/07/19 01:01:33;;;;;;;8.63;2.95;;;19.00;99.90;;;;;;5057737;28;20166;-71
2022/07/19 01:03:59;;;;;;;7.22;3.45;;;18.90;99.90;;;;;;5006574;28;20092;-71
2022/07/19 01:06:25;;;;;;;6.72;3.50;;;18.90;99.90;;;;;;5057791;28;20041;-71
2022/07/19 01:08:50;;;;;;;5.88;3.17;;;18.80;99.90;;;;;;5058147;28;20122;-71
2022/07/19 01:11:16;;;;;;;9.30;3.67;;;18.80;99.90;;;;;;5057524;28;20477;-71
2022/07/19 01:13:42;;;;;;;5.93;3.42;;;18.90;99.90;;;;;;5057286;28;20130;-71
2022/07/19 01:16:07;;;;;;;5.60;2.80;;;18.80;99.90;;;;;;5057476;28;20105;-71
2022/07/19 01:18:33;;;;;;;6.07;2.95;;;18.70;99.90;;;;;;5057238;28;20049;-71
2022/07/19 01:21:00;;;;;;;5.75;3.28;;;18.70;99.90;;;;;;5039619;28;20059;-71
2022/07/19 01:23:26;;;;;;;7.90;3.35;;;18.60;99.90;;;;;;5057846;28;20366;-70
2022/07/19 01:25:52;;;;;;;8.35;2.90;;;18.60;99.90;;;;;;5057318;28;20045;-71
2022/07/19 01:28:17;;;;;;;6.40;3.67;;;18.60;99.90;;;;;;5057241;28;20088;-72
2022/07/19 01:30:43;;;;;;;5.68;3.83;;;18.60;99.90;;;;;;5057278;28;20120;-72
2022/07/19 01:33:08;;;;;;;9.18;3.10;;;18.50;99.90;;;;;;5057098;28;20040;-71
2022/07/19 01:35:34;;;;;;;6.40;3.17;;;18.50;99.90;;;;;;5057307;28;20049;-71
2022/07/19 01:37:59;;;;;;;6.80;3.40;;;18.50;99.90;;;;;;5040229;28;20049;-71
2022/07/19 01:40:26;;;;;;;5.63;3.05;;;18.40;99.90;;;;;;5057263;28;20450;-71
2022/07/19 01:42:51;;;;;;;9.15;4.28;;;18.40;99.90;;;;;;5057460;28;20045;-71
2022/07/19 01:45:18;;;;;;;8.10;3.47;;;18.40;99.90;;;;;;5056885;28;20045;-71
2022/07/19 01:47:45;;;;;;;4.72;2.92;;;18.40;99.90;;;;;;5056654;28;20045;-71
2022/07/19 01:50:12;;;;;;;6.53;3.40;;;18.30;99.90;;;;;;5056861;28;20048;-71
2022/07/19 01:52:38;;;;;;;5.90;3.00;;;18.30;99.90;;;;;;5056930;28;20377;-71
2022/07/19 01:55:04;;;;;;;8.93;3.85;;;18.20;99.90;;;;;;5039587;28;20057;-71
2022/07/19 01:57:30;;;;;;;8.02;3.60;;;18.20;99.90;;;;;;5056629;28;20092;-70
2022/07/19 01:59:56;;;;;;;8.15;3.80;;;18.20;99.90;;;;;;5056629;28;20076;-71
2022/07/19 02:02:21;;;;;;;7.97;3.70;;;18.20;99.90;;;;;;5057030;28;20094;-71
2022/07/19 02:04:47;;;;;;;9.82;4.10;;;18.20;99.90;;;;;;5056517;28;20057;-71
2022/07/19 02:07:12;;;;;;;7.63;3.72;;;18.20;99.90;;;;;;5056409;28;20103;-71
2022/07/19 02:09:38;;;;;;;8.88;3.75;;;18.20;99.90;;;;;;5056392;28;20095;-71
2022/07/19 02:12:04;;;;;;;7.00;4.00;;;18.10;99.90;;;;;;5056442;28;20492;-71
2022/07/19 02:14:30;;;;;;;8.55;3.85;;;18.00;99.90;;;;;;5056282;28;20460;-71
2022/07/19 02:16:55;;;;;;;6.93;3.20;;;18.10;99.90;;;;;;5039027;28;20118;-71
2022/07/19 02:19:21;;;;;;;6.45;3.83;;;18.00;99.90;;;;;;5039004;28;20140;-71
2022/07/19 02:21:47;;;;;;;7.38;3.97;;;18.00;99.90;;;;;;5056221;28;20080;-71
2022/07/19 02:24:14;;;;;;;6.60;4.05;;;18.10;99.90;;;;;;5056091;28;20045;-71
2022/07/19 02:26:39;;;;;;;4.90;3.30;;;18.00;99.90;;;;;;5055926;28;20037;-71
2022/07/19 02:29:05;;;;;;;5.32;3.30;;;18.00;99.90;;;;;;5055693;28;20049;-70
2022/07/19 02:31:31;;;;;;;7.35;3.20;;;18.00;99.90;;;;;;5055953;28;20041;-71
2022/07/19 02:33:57;;;;;;;8.68;3.78;;;17.90;99.90;;;;;;5056447;28;20041;-71
2022/07/19 02:36:22;;;;;;;6.85;3.53;;;17.90;99.90;;;;;;5055782;28;20128;-71
2022/07/19 02:38:48;;;;;;;6.03;3.65;;;17.90;99.90;;;;;;5056190;28;20048;-71
2022/07/19 02:41:14;;;;;;;7.15;3.45;;;18.00;99.90;;;;;;5055843;28;20052;-70
2022/07/19 02:43:40;;;;;;;7.38;3.70;;;17.90;99.90;;;;;;5055838;28;20051;-71
2022/07/19 02:46:06;;;;;;;10.20;3.55;;;17.90;99.90;;;;;;5055619;28;20136;-71
2022/07/19 02:48:31;;;;;;;8.50;3.55;;;17.90;99.90;;;;;;5055534;28;20431;-71
2022/07/19 02:50:57;;;;;;;7.00;3.67;;;17.90;99.90;;;;;;5055523;28;20343;-71
2022/07/19 02:53:23;;;;;;;11.10;4.25;;;17.90;99.90;;;;;;5055335;28;20051;-71
2022/07/19 02:55:49;;;;;;;10.25;4.40;;;18.00;99.90;;;;;;5037840;28;20044;-71
2022/07/19 02:58:14;;;;;;;5.93;3.70;;;17.90;99.90;;;;;;5055482;28;20049;-71
2022/07/19 03:00:40;;;;;;;6.38;3.60;;;17.90;99.90;;;;;;5055260;28;20132;-71
2022/07/19 03:05:50;;;;;;;6.07;3.83;;;17.90;99.90;;;;;;5056115;28;20433;-71
2022/07/19 03:08:17;;;;;;;14.55;4.03;;;17.70;99.90;;;;;;5055937;28;20128;-71
2022/07/19 03:10:43;;;;;;;9.20;3.97;;;17.80;99.90;;;;;;5055395;28;20125;-71
2022/07/19 03:13:08;;;;;;;7.25;3.75;;;17.80;99.90;;;;;;5055016;28;20080;-71
2022/07/19 03:15:35;;;;;;;7.43;3.75;;;17.70;99.90;;;;;;5055514;28;20441;-70
2022/07/19 03:18:01;;;;;;;6.00;3.35;;;17.70;99.90;;;;;;5055569;28;20060;-70
2022/07/19 03:20:27;;;;;;;7.50;3.70;;;17.70;99.90;;;;;;5055169;28;20060;-70
2022/07/19 03:22:52;;;;;;;7.82;3.83;;;17.70;99.90;;;;;;5055098;28;20040;-71
2022/07/19 03:25:18;;;;;;;7.88;3.72;;;17.70;99.90;;;;;;5055545;28;20068;-71
2022/07/19 03:27:43;;;;;;;11.00;3.88;;;17.70;99.90;;;;;;5054859;28;20048;-71
2022/07/19 03:30:09;;;;;;;6.18;3.40;;;17.70;99.90;;;;;;5055019;28;20493;-71
2022/07/19 03:32:35;;;;;;;6.63;3.88;;;17.70;99.90;;;;;;5037625;28;20045;-71
2022/07/19 03:35:00;;;;;;;7.18;4.07;;;17.70;99.90;;;;;;5054922;28;20044;-71
2022/07/19 03:37:26;;;;;;;7.20;3.72;;;17.70;99.90;;;;;;5054830;28;20055;-71
2022/07/19 03:39:51;;;;;;;11.55;3.75;;;17.70;99.90;;;;;;5054730;28;20106;-71
2022/07/19 03:42:17;;;;;;;6.60;3.38;;;17.70;99.90;;;;;;5054797;28;20045;-71
2022/07/19 03:44:43;;;;;;;8.43;3.50;;;17.70;99.90;;;;;;5055224;28;20047;-70
2022/07/19 03:47:08;;;;;;;7.05;3.88;;;17.70;99.90;;;;;;5055157;28;20052;-71
2022/07/19 03:49:34;;;;;;;6.32;3.50;;;17.70;99.90;;;;;;5054772;28;20055;-71
2022/07/19 03:51:59;;;;;;;7.55;4.07;;;17.80;99.90;;;;;;5054576;28;20049;-70
2022/07/19 03:54:25;;;;;;;7.88;3.78;;;17.70;99.90;;;;;;5054721;28;20401;-70
2022/07/19 03:56:50;;;;;;;6.32;3.20;;;17.70;99.90;;;;;;5054777;28;20045;-71
2022/07/19 03:59:16;;;;;;;6.35;3.80;;;17.80;99.90;;;;;;5054388;28;20037;-71
2022/07/19 04:01:42;;;;;;;6.47;3.50;;;17.80;99.90;;;;;;5054724;28;20110;-70
2022/07/19 04:04:07;;;;;;;7.82;3.40;;;17.70;99.90;;;;;;5054964;28;20052;-71
2022/07/19 04:06:33;;;;;;;12.20;4.32;;;17.80;99.90;;;;;;5054648;28;20075;-71
2022/07/19 04:08:58;;;;;;;6.65;3.85;;;17.80;99.90;;;;;;5054597;28;20449;-70
2022/07/19 04:11:24;;;;;;;6.78;3.88;;;17.80;99.90;;;;;;5054571;28;20045;-71
2022/07/19 04:13:50;;;;;;;13.75;5.55;;;17.80;99.90;;;;;;5054428;28;20040;-71
2022/07/19 04:16:16;;;;;;;9.13;4.35;;;17.90;99.90;;;;;;5055119;28;20397;-71
2022/07/19 04:18:41;;;;;;;9.52;4.03;;;17.90;99.90;;;;;;5054470;28;20041;-70
2022/07/19 04:21:07;;;;;;;7.70;4.03;;;17.90;99.90;;;;;;5054771;28;20110;-71
2022/07/19 04:23:32;;;;;;;6.18;3.22;;;18.00;99.90;;;;;;5054696;28;20060;-71
2022/07/19 04:25:58;;;;;;;9.50;3.33;;;18.00;99.90;;;;;;5054255;28;20036;-71
2022/07/19 04:28:24;;;;;;;11.27;3.88;;;18.10;99.90;;;;;;5054273;28;20064;-70
2022/07/19 04:30:50;;;;;;;7.43;3.60;;;18.10;99.90;;;;;;5054881;28;20124;-71
2022/07/19 04:33:17;;;;;;;7.78;3.85;;;18.20;99.90;;;;;;5054349;28;20040;-70
2022/07/19 04:35:43;;;;;;;7.85;3.80;;;18.20;99.90;;;;;;5054317;28;20140;-71
2022/07/19 04:38:09;;;;;;;6.43;3.83;;;18.30;99.90;;;;;;5054192;28;20128;-71
2022/07/19 04:40:34;;;;;;;6.25;4.07;;;18.30;99.90;;;;;;5054817;28;20124;-71
2022/07/19 04:43:00;;;;;;;5.60;3.47;;;18.30;99.90;;;;;;5054169;28;20056;-71
2022/07/19 04:45:26;;;;;;;11.02;4.07;;;18.40;99.90;;;;;;5054213;28;20052;-71
2022/07/19 04:47:51;;;;;;;5.70;3.67;;;18.50;99.90;;;;;;5054508;28;20131;-71
2022/07/19 04:50:17;;;;;;;5.85;3.70;;;18.60;99.90;;;;;;5054092;28;20080;-71
2022/07/19 04:52:42;;;;;;;6.78;3.35;;;18.60;99.90;;;;;;5055617;28;20061;-71
2022/07/19 04:55:09;;;;;;;7.93;3.22;;;18.70;99.90;;;;;;5057933;28;20064;-71
2022/07/19 04:57:35;;;;;;;7.45;4.18;;;18.80;99.90;;;;;;5057759;28;20412;-71
2022/07/19 05:00:01;;;;;;;7.40;3.08;;;18.90;99.90;;;;;;5057812;28;20126;-71
2022/07/19 05:02:27;;;;;;;6.80;3.55;;;19.00;99.90;;;;;;5057743;28;20051;-70
2022/07/19 05:04:52;;;;;;;7.80;3.40;;;19.00;99.90;;;;;;5057653;28;20044;-71
2022/07/19 05:07:18;;;;;;;5.63;3.22;;;19.10;99.90;;;;;;5058014;28;20128;-71
2022/07/19 05:09:44;;;;;;;9.93;3.42;;;19.20;99.90;;;;;;5058164;28;20044;-70
2022/07/19 05:12:10;;;;;;;6.93;3.63;;;19.40;99.90;;;;;;5057433;28;20097;-71
2022/07/19 05:14:36;;;;;;;7.82;3.55;;;19.40;99.90;;;;;;5057445;28;20052;-70
2022/07/19 05:17:02;;;;;;;5.75;3.28;;;19.50;99.90;;;;;;5057651;28;20041;-71
2022/07/19 05:19:27;;;;;;;7.05;3.05;;;19.50;99.90;;;;;;5057266;28;20048;-71
2022/07/19 05:21:53;;;;;;;8.45;3.60;;;19.70;99.90;;;;;;5057375;28;20048;-71
2022/07/19 05:24:18;;;;;;;5.65;3.35;;;19.90;99.90;;;;;;5057783;28;20453;-71
2022/07/19 05:26:44;;;;;;;6.95;3.28;;;20.60;99.90;;;;;;5057626;28;20036;-71
2022/07/19 05:29:09;;;;;;;7.35;3.08;;;21.60;99.90;;;;;;5057647;28;20132;-71
2022/07/19 05:31:35;;;;;;;7.95;3.25;;;22.70;99.90;;;;;;5057139;28;20114;-71
2022/07/19 05:34:01;;;;;;;5.60;2.88;;;23.60;99.90;;;;;;5057142;28;20064;-72
2022/07/19 05:36:27;;;;;;;6.32;3.03;;;24.40;99.90;;;;;;5057042;28;20045;-71
2022/07/19 05:38:53;;;;;;;8.80;3.17;;;25.10;99.90;;;;;;5057030;28;20335;-71
2022/07/19 05:41:21;;;;;;;5.70;3.08;;;25.80;99.90;;;;;;5056926;28;20115;-68
2022/07/19 05:43:48;;;;;;;7.07;2.90;;;26.30;99.20;;;;;;5057014;28;20048;-69
2022/07/19 05:46:13;;;;;;;7.00;3.00;;;26.70;98.30;;;;;;5056855;28;20123;-69
2022/07/19 05:48:39;;;;;;;6.97;3.00;;;27.30;98.00;;;;;;5056784;28;20048;-69
2022/07/19 05:51:04;;;;;;;6.88;3.00;;;27.70;96.70;;;;;;5057014;28;20122;-69
2022/07/19 05:53:30;;;;;;;7.25;3.10;;;28.00;95.20;;;;;;5056606;28;20473;-68
2022/07/19 05:55:56;;;;;;;6.38;2.95;;;28.30;94.70;;;;;;5056623;28;20048;-70
2022/07/19 05:58:22;;;;;;;5.70;3.40;;;28.50;94.50;;;;;;5056627;28;20037;-69
2022/07/19 06:03:33;;;;;;;6.10;3.40;;;28.90;93.40;;;;;;5056489;28;20098;-69
2022/07/19 06:05:58;;;;;;;7.75;3.05;;;29.30;93.20;;;;;;5056545;28;20432;-69
2022/07/19 06:08:24;;;;;;;5.68;3.03;;;29.50;92.50;;;;;;5038998;28;20053;-69
2022/07/19 06:10:49;;;;;;;7.15;3.30;;;29.40;92.40;;;;;;5056420;28;20084;-69
2022/07/19 06:13:15;;;;;;;9.15;3.50;;;29.80;91.90;;;;;;5056355;28;20121;-69
2022/07/19 06:15:41;;;;;;;5.57;2.95;;;30.00;91.80;;;;;;5056350;28;20048;-69
2022/07/19 06:18:06;;;;;;;5.95;3.00;;;29.90;91.10;;;;;;5056399;28;20045;-69
2022/07/19 06:20:32;;;;;;;5.25;3.15;;;30.10;91.40;;;;;;5056226;28;20057;-69
2022/07/19 06:22:58;;;;;;;5.90;2.95;;;30.50;91.20;;;;;;5055893;28;20365;-69
2022/07/19 06:25:23;;;;;;;8.38;3.15;;;30.70;90.80;;;;;;5055792;28;20120;-69
2022/07/19 06:27:49;;;;;;;5.93;2.65;;;31.20;90.40;;;;;;5056476;28;20045;-69
2022/07/19 06:30:14;;;;;;;6.75;3.00;;;31.30;90.00;;;;;;5056066;28;20094;-69
2022/07/19 06:32:40;;;;;;;8.95;2.83;;;31.30;89.90;;;;;;5055752;28;20049;-69
2022/07/19 06:35:06;;;;;;;8.63;3.08;;;31.40;89.80;;;;;;5056487;28;20067;-69
2022/07/19 06:37:31;;;;;;;7.90;2.88;;;31.40;89.20;;;;;;5055727;28;20084;-70
2022/07/19 06:39:57;;;;;;;6.28;2.60;;;31.70;88.70;;;;;;5055757;28;20473;-70
2022/07/19 06:42:22;;;;;;;5.57;2.60;;;32.20;88.30;;;;;;5055795;28;20045;-69
2022/07/19 06:44:48;;;;;;;7.63;3.20;;;32.10;88.10;;;;;;5055574;28;20049;-69
2022/07/19 06:47:14;;;;;;;5.30;2.65;;;32.50;87.10;;;;;;5056272;28;20045;-70
2022/07/19 06:49:40;;;;;;;7.25;2.75;;;32.60;87.10;;;;;;5038368;28;20469;-70
2022/07/19 06:52:06;;;;;;;6.57;2.60;;;32.90;85.50;;;;;;5055505;28;20065;-69
2022/07/19 06:54:31;;;;;;;6.63;2.40;;;33.20;86.50;;;;;;5038212;28;20053;-69
2022/07/19 06:56:57;;;;;;;7.80;2.60;;;33.30;85.10;;;;;;5055458;28;20056;-69
2022/07/19 06:59:22;;;;;;;6.60;2.80;;;33.50;84.30;;;;;;5056086;28;20453;-70
2022/07/19 07:01:48;;;;;;;7.65;2.92;;;33.50;83.00;;;;;;5055087;28;20465;-70
2022/07/19 07:04:14;;;;;;;6.05;2.92;;;33.60;83.70;;;;;;5056050;28;20040;-70
2022/07/19 07:06:39;;;;;;;12.32;3.10;;;33.60;83.30;;;;;;5055337;28;20449;-69
2022/07/19 07:09:05;;;;;;;5.93;2.80;;;33.70;83.70;;;;;;5055815;28;20041;-69
2022/07/19 07:11:31;;;;;;;5.78;2.33;;;34.20;82.70;;;;;;5055284;28;20091;-70
2022/07/19 07:13:56;;;;;;;7.53;2.30;;;34.10;83.80;;;;;;5055190;28;20073;-69
2022/07/19 07:16:22;;;;;;;5.75;2.25;;;34.20;83.20;;;;;;5054702;28;20033;-69
2022/07/19 07:18:47;;;;;;;6.85;2.20;;;34.60;82.70;;;;;;5055043;28;20053;-69
2022/07/19 07:21:13;;;;;;;5.53;2.28;;;34.60;82.70;;;;;;5055112;28;20033;-70
2022/07/19 07:23:39;;;;;;;7.32;2.38;;;34.70;82.30;;;;;;5055013;28;20133;-70
2022/07/19 07:26:05;;;;;;;4.57;2.17;;;34.70;82.30;;;;;;5037117;28;20132;-69
2022/07/19 07:28:30;;;;;;;6.20;2.38;;;34.70;81.60;;;;;;5055294;28;20077;-70
2022/07/19 07:30:56;;;;;;;11.77;2.72;;;34.70;81.70;;;;;;5055243;28;20059;-69
2022/07/19 07:33:22;;;;;;;7.47;3.00;;;34.70;81.00;;;;;;5055086;28;20087;-70
2022/07/19 07:35:47;;;;;;;7.65;2.38;;;35.10;80.90;;;;;;5054774;28;20469;-69
2022/07/19 07:38:13;;;;;;;5.85;2.97;;;35.10;80.90;;;;;;5054559;28;20055;-69
2022/07/19 07:40:38;;;;;;;7.00;2.30;;;34.90;81.10;;;;;;5055418;28;20040;-70
2022/07/19 07:43:05;;;;;;;7.03;2.72;;;34.90;80.80;;;;;;5054832;28;20473;-69
2022/07/19 07:45:32;;;;;;;5.93;2.58;;;35.00;81.30;;;;;;5055357;28;20080;-70
2022/07/19 07:47:57;;;;;;;8.40;2.60;;;35.10;81.40;;;;;;5054678;28;20053;-69
2022/07/19 07:50:23;;;;;;;5.72;2.20;;;35.20;81.50;;;;;;5054333;28;20051;-69
2022/07/19 07:52:49;;;;;;;4.53;1.75;;;35.50;80.60;;;;;;5054704;28;20111;-70
2022/07/19 07:55:14;;;;;;;7.47;2.70;;;35.80;80.40;;;;;;5055213;28;20056;-70
2022/07/19 07:57:40;;;;;;;4.43;2.10;;;36.10;80.80;;;;;;5055208;28;20134;-70
2022/07/19 08:00:07;;;;;;;6.28;2.20;;;36.10;80.20;;;;;;5054849;28;20041;-70
2022/07/19 08:02:38;;;;;;;7.35;2.10;;;36.00;79.50;;;;;;5037416;28;20057;-69
2022/07/19 08:05:04;;;;;;;7.05;2.47;;;35.90;78.90;;;;;;5054630;28;20132;-69
2022/07/19 08:07:30;;;;;;;8.13;2.25;;;35.90;80.00;;;;;;5054939;28;20121;-69
2022/07/19 08:09:57;;;;;;;4.07;1.90;;;36.20;79.70;;;;;;5054947;28;20053;-69
2022/07/19 08:12:23;;;;;;;4.28;2.00;;;36.70;79.40;;;;;;5054337;28;20449;-70
2022/07/19 08:14:49;;;;;;;5.28;2.33;;;36.60;77.10;;;;;;5054424;28;20041;-70
2022/07/19 08:17:14;;;;;;;6.53;1.92;;;36.60;78.20;;;;;;5054457;28;20532;-69
2022/07/19 08:19:40;;;;;;;5.05;1.65;;;36.50;77.90;;;;;;5054573;28;20041;-70
2022/07/19 08:22:05;;;;;;;6.50;2.35;;;36.40;77.40;;;;;;5054399;28;20052;-69
2022/07/19 08:24:31;;;;;;;5.03;1.77;;;36.10;77.70;;;;;;5054839;28;20087;-69
2022/07/19 08:26:56;;;;;;;6.78;2.08;;;36.30;77.80;;;;;;5054466;28;20040;-69
2022/07/19 08:29:22;;;;;;;4.55;1.75;;;36.30;77.50;;;;;;5058300;28;20050;-70
2022/07/19 08:31:48;;;;;;;5.63;1.98;;;35.90;77.20;;;;;;5058536;28;20052;-70
2022/07/19 08:34:13;;;;;;;3.60;1.98;;;36.10;78.10;;;;;;5058831;28;20350;-69
2022/07/19 08:36:39;;;;;;;4.32;1.90;;;36.10;78.20;;;;;;5058625;28;20072;-70
2022/07/19 08:39:04;;;;;;;6.55;2.45;;;36.30;78.80;;;;;;5058120;28;20056;-70
2022/07/19 08:41:30;;;;;;;4.85;1.88;;;36.60;77.80;;;;;;5058084;28;20052;-69
2022/07/19 08:44:00;;;;;;;4.45;1.67;;;36.50;77.70;;;;;;5058521;28;20051;-69
2022/07/19 08:46:25;;;;;;;4.32;2.15;;;36.60;76.20;;;;;;5058481;28;20040;-69
2022/07/19 08:48:52;;;;;;;5.72;1.52;;;36.70;77.70;;;;;;5023916;28;20127;-70
2022/07/19 08:51:19;;;;;;;4.10;1.85;;;36.80;77.90;;;;;;5057761;28;20436;-70
2022/07/19 08:53:46;;;;;;;4.72;2.15;;;36.90;77.30;;;;;;5058028;28;20088;-70
2022/07/19 08:58:56;;;;;;;3.33;1.60;;;37.00;78.40;;;;;;5058505;28;20351;-70
2022/07/19 09:01:23;;;;;;;4.43;1.52;;;37.00;77.50;;;;;;5057492;28;20048;-69
2022/07/19 09:04:16;;;;;;;4.43;1.55;;;37.20;77.10;;;;;;5040473;28;20099;-70
2022/07/19 09:06:50;;;;;;;2.83;1.50;;;37.30;76.20;;;;;;5055257;28;20468;-70
2022/07/19 09:09:18;;;;;;;2.85;1.38;;;37.10;76.10;;;;;;5057616;28;20090;-69
2022/07/19 09:11:50;;;;;;;3.95;1.80;;;37.00;75.50;;;;;;5058063;28;20059;-70
2022/07/19 09:14:53;;;;;;;3.35;1.52;;;36.80;75.90;;;;;;5040147;28;20084;-70
2022/07/19 09:17:19;;;;;;;4.72;1.60;;;36.80;75.60;;;;;;5044611;28;20052;-69
2022/07/19 09:19:47;;;;;;;3.13;1.60;;;36.70;74.80;;;;;;5057403;28;20044;-69
2022/07/19 09:22:19;;;;;;;5.97;2.00;;;36.60;74.60;;;;;;5057348;28;20063;-70
2022/07/19 09:24:49;;;;;;;3.42;1.42;;;36.40;75.00;;;;;;5057750;28;20353;-69
2022/07/19 09:27:22;;;;;;;4.57;1.45;;;36.20;73.70;;;;;;5057119;28;20416;-70
2022/07/19 09:29:53;;;;;;;3.88;1.40;;;35.80;74.50;;;;;;5057375;28;20539;-70
2022/07/19 09:32:20;;;;;;;3.53;1.10;;;35.40;74.50;;;;;;5057171;28;20044;-69
2022/07/19 09:34:54;;;;;;;5.20;1.55;;;35.30;76.00;;;;;;5057132;28;20041;-70
2022/07/19 09:37:28;;;;;;;6.70;1.88;;;35.30;76.60;;;;;;5056941;28;20437;-70
2022/07/19 09:39:58;;;;;;;3.20;1.30;;;35.10;74.50;;;;;;5040132;28;20056;-69
2022/07/19 09:42:34;;;;;;;3.60;1.27;;;35.20;75.00;;;;;;5057381;28;20041;-70
2022/07/19 09:45:11;;;;;;;4.28;1.48;;;35.20;75.70;;;;;;5039747;28;20056;-69
2022/07/19 09:47:40;;;;;;;3.67;1.70;;;35.20;75.10;;;;;;5039399;28;20128;-70
2022/07/19 09:50:09;;;;;;;6.45;1.38;;;35.20;74.50;;;;;;5056825;28;20059;-69
2022/07/19 09:52:36;;;;;;;3.95;1.45;;;35.20;73.40;;;;;;5056702;28;20203;-69
2022/07/19 09:55:07;;;;;;;3.97;1.50;;;35.10;73.30;;;;;;5056729;28;20053;-69
2022/07/19 09:57:35;;;;;;;4.07;1.63;;;35.10;73.50;;;;;;5056801;28;20045;-69
2022/07/19 10:00:03;;;;;;;3.90;1.35;;;35.00;73.80;;;;;;5056676;28;20059;-70
2022/07/19 10:02:31;;;;;;;4.05;1.92;;;35.10;74.20;;;;;;5056303;28;20461;-70
2022/07/19 10:04:57;;;;;;;6.63;1.25;;;35.10;73.90;;;;;;5056640;28;20045;-69
2022/07/19 10:07:24;;;;;;;7.70;1.77;;;35.10;74.00;;;;;;5056668;28;20385;-70
2022/07/19 10:09:50;;;;;;;3.88;1.42;;;35.20;73.80;;;;;;5039288;28;20453;-69
2022/07/19 10:12:16;;;;;;;3.33;1.42;;;35.00;72.70;;;;;;5056364;28;20041;-70
2022/07/19 10:14:42;;;;;;;4.38;1.33;;;34.90;73.30;;;;;;5056060;28;20056;-69
2022/07/19 10:17:35;;;;;;;7.28;1.38;;;35.00;73.60;;;;;;5056379;28;20068;-69
2022/07/19 10:20:03;;;;;;;3.17;1.55;;;35.10;73.70;;;;;;5056354;28;20132;-70
2022/07/19 10:22:29;;;;;;;3.85;1.80;;;35.20;73.90;;;;;;5056176;28;20094;-70
2022/07/19 10:25:05;;;;;;;3.03;1.35;;;35.20;72.70;;;;;;5056172;28;20462;-69
2022/07/19 10:27:30;;;;;;;2.72;1.23;;;35.10;72.00;;;;;;5056042;28;20131;-69
2022/07/19 10:29:58;;;;;;;6.55;1.20;;;35.30;72.80;;;;;;5056113;28;20397;-69
2022/07/19 10:32:31;;;;;;;6.95;1.58;;;35.30;72.90;;;;;;5038440;28;20111;-70
2022/07/19 10:35:18;;;;;;;7.35;1.50;;;35.20;72.00;;;;;;5055817;28;20080;-70
2022/07/19 10:37:49;;;;;;;4.38;1.40;;;35.30;71.60;;;;;;5055709;28;20041;-69
2022/07/19 10:40:42;;;;;;;4.82;1.65;;;35.30;72.80;;;;;;5056274;28;20114;-70
2022/07/19 10:43:10;;;;;;;6.00;1.60;;;35.30;72.70;;;;;;5055865;28;20106;-69
2022/07/19 10:45:38;;;;;;;3.03;1.20;;;35.30;72.30;;;;;;5056329;28;20114;-70
2022/07/19 10:48:07;;;;;;;9.15;1.83;;;35.40;72.50;;;;;;5055495;28;20469;-70
2022/07/19 10:50:50;;;;;;;4.63;1.45;;;35.40;73.00;;;;;;5054789;28;20047;-70
2022/07/19 10:53:41;;;;;;;4.65;1.48;;;35.60;71.40;;;;;;5055760;28;20148;-70
2022/07/19 10:56:20;;;;;;;4.03;1.42;;;35.60;71.80;;;;;;5055556;28;20045;-70
2022/07/19 10:58:53;;;;;;;4.18;1.30;;;35.70;73.40;;;;;;5055970;28;20049;-70
2022/07/19 11:01:20;;;;;;;4.60;1.40;;;35.80;72.90;;;;;;5056007;28;20045;-71
2022/07/19 11:03:47;;;;;;;2.70;1.20;;;35.80;72.20;;;;;;5055440;28;20146;-70
2022/07/19 11:06:27;;;;;;;2.83;1.20;;;35.80;71.60;;;;;;5055422;28;20041;-70
2022/07/19 11:08:58;;;;;;;3.75;1.52;;;35.80;71.30;;;;;;5055765;28;20111;-71
2022/07/19 11:11:26;;;;;;;3.05;1.30;;;35.80;73.30;;;;;;5055405;28;20052;-70
2022/07/19 11:13:54;;;;;;;5.18;1.65;;;36.00;72.80;;;;;;5055005;28;20060;-69
2022/07/19 11:16:20;;;;;;;3.00;1.20;;;36.00;72.00;;;;;;5055433;28;20114;-69
2022/07/19 11:18:46;;;;;;;2.42;1.48;;;36.10;71.50;;;;;;5055208;28;20126;-70
2022/07/19 11:21:14;;;;;;;3.10;1.10;;;36.10;71.90;;;;;;5055140;28;20052;-70
2022/07/19 11:23:41;;;;;;;4.35;1.70;;;36.20;72.60;;;;;;5054750;28;20067;-70
2022/07/19 11:26:08;;;;;;;5.18;1.92;;;36.20;71.20;;;;;;5054931;28;20040;-70
2022/07/19 11:28:35;;;;;;;3.85;1.30;;;36.10;71.50;;;;;;5054953;28;20135;-70
2022/07/19 11:31:11;;;;;;;2.78;1.08;;;36.10;70.80;;;;;;5037806;28;20079;-70
2022/07/19 11:33:36;;;;;;;4.97;1.30;;;36.20;73.10;;;;;;5055025;28;20067;-70
2022/07/19 11:36:02;;;;;;;2.78;1.23;;;36.20;70.60;;;;;;5054861;28;20044;-70
2022/07/19 11:38:39;;;;;;;3.90;1.30;;;36.20;70.30;;;;;;5055387;28;20339;-70
2022/07/19 11:41:11;;;;;;;2.60;1.20;;;36.20;70.80;;;;;;5055100;28;20048;-72
2022/07/19 11:43:37;;;;;;;3.30;1.38;;;36.20;69.90;;;;;;5054771;28;20535;-71
2022/07/19 11:46:02;;;;;;;4.45;1.40;;;36.30;70.70;;;;;;5054969;28;20041;-70
2022/07/19 11:48:30;;;;;;;6.70;1.40;;;36.40;71.80;;;;;;5054695;28;20102;-71
2022/07/19 11:51:09;;;;;;;5.35;1.65;;;36.50;72.50;;;;;;5054714;28;20036;-71
2022/07/19 11:53:37;;;;;;;3.78;1.20;;;36.80;71.60;;;;;;5055230;28;20052;-70
2022/07/19 11:56:05;;;;;;;5.22;1.58;;;36.90;71.80;;;;;;5054567;28;20048;-71
2022/07/19 11:58:31;;;;;;;3.60;1.27;;;36.90;68.90;;;;;;5054721;28;20041;-71
2022/07/19 12:01:01;;;;;;;3.03;1.42;;;36.80;70.40;;;;;;5054910;28;20051;-70
2022/07/19 12:03:27;;;;;;;4.18;1.60;;;36.80;70.50;;;;;;5058793;28;20037;-70
2022/07/19 12:05:59;;;;;;;6.47;1.33;;;36.80;71.10;;;;;;5058989;28;20114;-70
2022/07/19 12:08:36;;;;;;;4.22;1.23;;;37.00;69.50;;;;;;5058677;28;20045;-70
2022/07/19 12:11:14;;;;;;;3.60;1.50;;;37.00;67.10;;;;;;5058928;28;20044;-70
2022/07/19 12:13:39;;;;;;;2.60;1.08;;;36.80;67.70;;;;;;5041144;28;20060;-70
2022/07/19 12:16:10;;;;;;;4.88;1.25;;;36.90;69.70;;;;;;5058521;28;20370;-70
2022/07/19 12:18:55;;;;;;;2.38;1.13;;;37.00;69.90;;;;;;5058450;28;20537;-70
2022/07/19 12:21:38;;;;;;;2.65;1.15;;;37.10;68.40;;;;;;5058524;28;20041;-71
2022/07/19 12:24:10;;;;;;;4.72;1.50;;;37.30;68.80;;;;;;5058485;28;20357;-70
2022/07/19 12:26:36;;;;;;;4.57;1.17;;;37.30;67.10;;;;;;5058277;28;20048;-70
2022/07/19 12:29:15;;;;;;;5.63;1.38;;;37.20;68.30;;;;;;5058559;28;20049;-70
2022/07/19 12:31:49;;;;;;;2.60;1.05;;;37.20;67.60;;;;;;5058324;28;20036;-70
2022/07/19 12:34:15;;;;;;;3.65;1.27;;;37.10;69.80;;;;;;5058807;28;20080;-70
2022/07/19 12:36:41;;;;;;;10.38;1.27;;;37.20;69.10;;;;;;5058172;28;20049;-71
2022/07/19 12:39:28;;;;;;;6.00;1.23;;;37.40;69.40;;;;;;5058174;28;20347;-71
2022/07/19 12:41:54;;;;;;;4.05;1.13;;;37.50;67.10;;;;;;5058418;28;20076;-70
2022/07/19 12:44:20;;;;;;;4.90;1.17;;;37.60;68.00;;;;;;5058151;28;20080;-71
2022/07/19 12:46:45;;;;;;;3.70;1.10;;;37.50;67.10;;;;;;5057978;28;20088;-70
2022/07/19 12:49:11;;;;;;;8.63;1.27;;;37.60;68.10;;;;;;5057711;28;20045;-71
2022/07/19 12:51:42;;;;;;;4.43;1.45;;;37.60;66.60;;;;;;5057995;28;20053;-71
2022/07/19 12:54:08;;;;;;;3.38;1.30;;;37.60;66.60;;;;;;5058830;28;20065;-70